Time;durP1;ratioP1;P1;durP2;ratioP2;P2;SDS_P1;SDS_P2;PMS_P1;PMS_P2;Temp;Humidity;BMP_temperature;BMP_pressure;BME280_temperature;BME280_humidity;BME280_pressure;Samples;Min_cycle;Max_cycle;Signal;HPM_P1;HPM_P2
2021/07/21 00:02:00;;;;;;;11.73;6.97;;;;;;;;;;5079745;28;20456;-71
2021/07/21 00:04:31;;;;;;;9.47;6.13;;;;;;;;;;5079862;28;20448;-71
2021/07/21 00:07:00;;;;;;;9.70;6.77;;;;;;;;;;5079635;28;20452;-71
2021/07/21 00:09:27;;;;;;;10.70;7.00;;;;;;;;;;5079775;28;20463;-72
2021/07/21 00:14:40;;;;;;;8.63;5.63;;;;;;;;;;5079247;28;20462;-71
2021/07/21 00:17:18;;;;;;;11.47;6.67;;;;;;;;;;5078921;28;20487;-71
2021/07/21 00:22:32;;;;;;;11.63;7.13;;;;;;;;;;5078668;28;20578;-71
2021/07/21 00:25:00;;;;;;;8.20;6.23;;;;;;;;;;5078616;28;20449;-71
2021/07/21 00:27:28;;;;;;;7.50;6.27;;;;;;;;;;5078129;28;20464;-72
2021/07/21 00:29:56;;;;;;;13.67;6.77;;;;;;;;;;5078870;28;20464;-71
2021/07/21 00:32:23;;;;;;;11.40;5.90;;;;;;;;;;5078372;28;20456;-71
2021/07/21 00:34:53;;;;;;;11.20;6.70;;;;;;;;;;5078021;28;20453;-71
2021/07/21 00:37:20;;;;;;;10.90;7.10;;;;;;;;;;5078494;28;20488;-71
2021/07/21 00:39:48;;;;;;;10.63;6.23;;;;;;;;;;5078237;28;20930;-72
2021/07/21 00:42:16;;;;;;;11.87;6.87;;;;;;;;;;5078084;28;20872;-71
2021/07/21 00:44:44;;;;;;;10.10;7.23;;;;;;;;;;5078111;28;20525;-71
2021/07/21 00:47:12;;;;;;;9.03;7.30;;;;;;;;;;5078431;28;20456;-72
2021/07/21 00:49:40;;;;;;;9.73;6.67;;;;;;;;;;5078287;28;20448;-71
2021/07/21 00:52:09;;;;;;;11.40;7.10;;;;;;;;;;5078716;28;20480;-71
2021/07/21 00:54:37;;;;;;;8.83;6.30;;;;;;;;;;5078188;28;20518;-71
2021/07/21 00:57:06;;;;;;;9.20;7.20;;;;;;;;;;5078216;28;20499;-72
2021/07/21 00:59:34;;;;;;;10.07;7.13;;;;;;;;;;5078109;28;20463;-71
2021/07/21 01:02:02;;;;;;;8.80;7.23;;;;;;;;;;5078435;28;20935;-71
2021/07/21 01:04:32;;;;;;;11.40;9.10;;;;;;;;;;5077940;28;20865;-71
2021/07/21 01:06:59;;;;;;;12.00;7.17;;;;;;;;;;5077991;28;20491;-71
2021/07/21 01:09:29;;;;;;;13.10;7.60;;;;;;;;;;5078020;28;20506;-72
2021/07/21 01:12:00;;;;;;;10.63;6.87;;;;;;;;;;5077660;28;20876;-71
2021/07/21 01:14:30;;;;;;;8.33;6.97;;;;;;;;;;5077567;28;20860;-71
2021/07/21 01:16:59;;;;;;;8.73;6.30;;;;;;;;;;5077568;28;20557;-71
2021/07/21 01:19:44;;;;;;;10.00;7.10;;;;;;;;;;5077376;28;20449;-71
2021/07/21 01:22:14;;;;;;;11.47;6.80;;;;;;;;;;5078005;28;20880;-71
2021/07/21 01:25:00;;;;;;;13.40;7.00;;;;;;;;;;5077366;28;20526;-71
2021/07/21 01:27:33;;;;;;;9.93;7.10;;;;;;;;;;5076973;28;20861;-71
2021/07/21 01:30:08;;;;;;;10.97;6.70;;;;;;;;;;5076995;28;20836;-72
2021/07/21 01:32:36;;;;;;;8.67;6.70;;;;;;;;;;5077386;28;20459;-71
2021/07/21 01:35:06;;;;;;;14.93;6.93;;;;;;;;;;5077640;28;20528;-71
2021/07/21 01:37:35;;;;;;;9.53;5.73;;;;;;;;;;5076746;28;20586;-71
2021/07/21 01:40:04;;;;;;;8.10;6.40;;;;;;;;;;5077793;28;20453;-71
2021/07/21 01:42:35;;;;;;;10.10;6.27;;;;;;;;;;5077709;28;20529;-72
2021/07/21 01:45:03;;;;;;;8.70;6.00;;;;;;;;;;5077357;28;20963;-72
2021/07/21 01:47:33;;;;;;;9.97;6.50;;;;;;;;;;5077309;28;20477;-71
2021/07/21 01:50:01;;;;;;;9.77;7.07;;;;;;;;;;5077406;28;20444;-71
2021/07/21 01:52:30;;;;;;;17.60;7.67;;;;;;;;;;5077444;28;20467;-70
2021/07/21 01:54:58;;;;;;;9.33;6.60;;;;;;;;;;5077054;28;20745;-70
2021/07/21 01:57:29;;;;;;;11.90;7.60;;;;;;;;;;5077053;28;20524;-70
2021/07/21 01:59:58;;;;;;;10.67;7.00;;;;;;;;;;5076561;28;20842;-71
2021/07/21 02:02:28;;;;;;;10.60;7.30;;;;;;;;;;5077099;28;20461;-70
2021/07/21 02:04:56;;;;;;;14.37;7.40;;;;;;;;;;5076988;28;20453;-70
2021/07/21 02:07:24;;;;;;;12.40;7.57;;;;;;;;;;5077181;28;20456;-70
2021/07/21 02:09:52;;;;;;;10.47;7.03;;;;;;;;;;5076839;28;20449;-72
2021/07/21 02:12:20;;;;;;;9.73;6.77;;;;;;;;;;5076867;28;20464;-72
2021/07/21 02:14:48;;;;;;;12.53;5.87;;;;;;;;;;5076941;28;20448;-72
2021/07/21 02:17:18;;;;;;;10.80;6.53;;;;;;;;;;5076235;28;20550;-70
2021/07/21 02:19:47;;;;;;;9.43;6.73;;;;;;;;;;5076633;28;20514;-72
2021/07/21 02:22:17;;;;;;;12.97;6.90;;;;;;;;;;5077016;28;20460;-72
2021/07/21 02:24:45;;;;;;;14.37;8.10;;;;;;;;;;5076379;28;20499;-72
2021/07/21 02:27:13;;;;;;;9.20;7.23;;;;;;;;;;5076462;28;20488;-72
2021/07/21 02:29:42;;;;;;;13.30;7.27;;;;;;;;;;5076329;28;20522;-71
2021/07/21 02:32:12;;;;;;;11.63;8.13;;;;;;;;;;5076676;28;20735;-71
2021/07/21 02:34:41;;;;;;;14.10;8.00;;;;;;;;;;5076024;28;20806;-71
2021/07/21 02:37:09;;;;;;;12.10;7.60;;;;;;;;;;5076437;28;20539;-72
2021/07/21 02:39:37;;;;;;;10.87;7.17;;;;;;;;;;5076625;28;20461;-72
2021/07/21 02:42:05;;;;;;;11.23;7.50;;;;;;;;;;5076978;28;20484;-72
2021/07/21 02:44:33;;;;;;;11.40;7.17;;;;;;;;;;5076745;28;20950;-72
2021/07/21 02:47:00;;;;;;;10.83;7.50;;;;;;;;;;5076117;28;20480;-72
2021/07/21 02:49:28;;;;;;;9.07;6.20;;;;;;;;;;5076066;28;20484;-72
2021/07/21 02:52:03;;;;;;;13.13;6.80;;;;;;;;;;5076266;28;20496;-72
2021/07/21 02:54:33;;;;;;;11.23;7.50;;;;;;;;;;5076633;28;20444;-72
2021/07/21 02:57:03;;;;;;;9.80;6.73;;;;;;;;;;5076613;28;20713;-71
2021/07/21 02:59:37;;;;;;;11.60;6.43;;;;;;;;;;5075986;28;20476;-72
2021/07/21 03:02:06;;;;;;;9.20;6.53;;;;;;;;;;5076197;28;20847;-72
2021/07/21 03:04:35;;;;;;;9.67;6.13;;;;;;;;;;5076382;28;20467;-72
2021/07/21 03:07:05;;;;;;;12.50;7.30;;;;;;;;;;5076330;28;20461;-72
2021/07/21 03:09:33;;;;;;;8.83;6.20;;;;;;;;;;5075734;28;20456;-71
2021/07/21 03:12:02;;;;;;;13.87;7.90;;;;;;;;;;5075482;28;20533;-71
2021/07/21 03:14:29;;;;;;;11.30;7.23;;;;;;;;;;5075893;28;20783;-71
2021/07/21 03:17:01;;;;;;;10.90;7.10;;;;;;;;;;5075799;28;20468;-71
2021/07/21 03:19:31;;;;;;;13.20;7.37;;;;;;;;;;5075580;28;20570;-72
2021/07/21 03:21:59;;;;;;;11.00;7.13;;;;;;;;;;5075833;28;20452;-71
2021/07/21 03:24:29;;;;;;;14.50;7.67;;;;;;;;;;5075742;28;20479;-71
2021/07/21 03:26:58;;;;;;;13.60;7.27;;;;;;;;;;5075065;28;20488;-72
2021/07/21 03:29:26;;;;;;;11.30;7.17;;;;;;;;;;5074822;28;20444;-71
2021/07/21 03:31:54;;;;;;;11.43;6.77;;;;;;;;;;5075944;28;20468;-71
2021/07/21 03:34:23;;;;;;;13.50;6.73;;;;;;;;;;5075809;28;20448;-72
2021/07/21 03:36:51;;;;;;;10.37;7.43;;;;;;;;;;5076611;28;20890;-72
2021/07/21 03:39:20;;;;;;;9.87;6.20;;;;;;;;;;5076060;28;20480;-72
2021/07/21 03:41:50;;;;;;;8.57;6.37;;;;;;;;;;5076241;28;20510;-71
2021/07/21 03:44:19;;;;;;;13.93;8.20;;;;;;;;;;5075745;28;20456;-72
2021/07/21 03:46:48;;;;;;;9.60;7.00;;;;;;;;;;5074628;28;20456;-72
2021/07/21 03:49:17;;;;;;;13.70;8.60;;;;;;;;;;5076464;28;20908;-71
2021/07/21 03:51:45;;;;;;;10.23;6.97;;;;;;;;;;5076261;28;20460;-72
2021/07/21 03:54:14;;;;;;;10.40;7.87;;;;;;;;;;5075798;28;20522;-72
2021/07/21 03:56:42;;;;;;;11.40;7.80;;;;;;;;;;5076119;28;20457;-71
2021/07/21 03:59:15;;;;;;;12.60;7.30;;;;;;;;;;5075427;28;20931;-71
2021/07/21 04:01:43;;;;;;;11.40;7.03;;;;;;;;;;5077402;28;20469;-72
2021/07/21 04:04:12;;;;;;;14.07;7.60;;;;;;;;;;5080010;28;20447;-72
2021/07/21 04:06:40;;;;;;;13.10;8.00;;;;;;;;;;5079834;28;20803;-72
2021/07/21 04:09:09;;;;;;;9.63;7.10;;;;;;;;;;5079042;28;20468;-72
2021/07/21 04:11:40;;;;;;;8.80;6.97;;;;;;;;;;5079645;28;20526;-72
2021/07/21 04:14:09;;;;;;;15.83;6.83;;;;;;;;;;5079494;28;20448;-72
2021/07/21 04:16:39;;;;;;;9.30;6.97;;;;;;;;;;5079573;28;20456;-72
2021/07/21 04:19:08;;;;;;;14.33;7.87;;;;;;;;;;5079028;28;20553;-71
2021/07/21 04:21:37;;;;;;;10.53;7.30;;;;;;;;;;5079621;28;20510;-71
2021/07/21 04:24:05;;;;;;;11.20;6.87;;;;;;;;;;5079565;28;20525;-71
2021/07/21 04:26:34;;;;;;;10.57;6.03;;;;;;;;;;5079266;28;20474;-72
2021/07/21 04:29:03;;;;;;;10.17;6.63;;;;;;;;;;5078819;28;20478;-72
2021/07/21 04:31:31;;;;;;;9.83;6.57;;;;;;;;;;5079273;28;20545;-71
2021/07/21 04:34:01;;;;;;;13.10;8.30;;;;;;;;;;5077998;28;20538;-71
2021/07/21 04:36:31;;;;;;;11.60;6.83;;;;;;;;;;5078328;28;20460;-71
2021/07/21 04:38:59;;;;;;;8.43;5.60;;;;;;;;;;5078650;28;20484;-71
2021/07/21 04:41:27;;;;;;;8.97;6.83;;;;;;;;;;5078172;28;20509;-71
2021/07/21 04:43:56;;;;;;;8.30;6.87;;;;;;;;;;5077292;28;20452;-71
2021/07/21 04:46:24;;;;;;;11.13;7.10;;;;;;;;;;5078197;28;20521;-71
2021/07/21 04:48:52;;;;;;;9.93;7.13;;;;;;;;;;5077922;28;20512;-71
2021/07/21 04:51:23;;;;;;;8.30;6.63;;;;;;;;;;5077718;28;20468;-71
2021/07/21 04:53:54;;;;;;;11.07;6.87;;;;;;;;;;5077138;28;20459;-71
2021/07/21 04:56:22;;;;;;;15.70;7.07;;;;;;;;;;5077706;28;20517;-71
2021/07/21 04:58:50;;;;;;;10.87;6.30;;;;;;;;;;5072516;28;20585;-71
2021/07/21 05:01:18;;;;;;;12.27;6.27;;;;;;;;;;5057374;28;20454;-72
2021/07/21 05:03:46;;;;;;;11.17;7.10;;;;;;;;;;5056299;28;20453;-72
2021/07/21 05:06:13;;;;;;;10.60;6.63;;;;;;;;;;5056451;28;20522;-72
2021/07/21 05:08:43;;;;;;;13.10;7.93;;;;;;;;;;5056305;28;20791;-71
2021/07/21 05:11:10;;;;;;;10.70;6.97;;;;;;;;;;5056688;28;20546;-70
2021/07/21 05:13:40;;;;;;;8.67;6.47;;;;;;;;;;5056038;28;20485;-72
2021/07/21 05:16:08;;;;;;;11.70;6.40;;;;;;;;;;5055809;28;20453;-72
2021/07/21 05:18:36;;;;;;;11.50;7.30;;;;;;;;;;5056061;28;20493;-72
2021/07/21 05:21:04;;;;;;;13.17;7.50;;;;;;;;;;5056023;28;20526;-72
2021/07/21 05:23:33;;;;;;;12.80;7.50;;;;;;;;;;5055428;28;20522;-72
2021/07/21 05:26:02;;;;;;;8.80;6.33;;;;;;;;;;5055282;28;20484;-72
2021/07/21 05:28:30;;;;;;;10.43;7.03;;;;;;;;;;5056381;28;20461;-72
2021/07/21 05:30:58;;;;;;;12.90;7.07;;;;;;;;;;5056704;28;20841;-71
2021/07/21 05:33:26;;;;;;;10.90;6.67;;;;;;;;;;5070735;28;20496;-70
2021/07/21 05:35:54;;;;;;;10.23;6.93;;;;;;;;;;5055575;28;20503;-70
2021/07/21 05:38:22;;;;;;;10.63;7.17;;;;;;;;;;5061366;28;20477;-70
2021/07/21 05:40:49;;;;;;;9.93;6.63;;;;;;;;;;5076158;28;20455;-71
2021/07/21 05:43:19;;;;;;;10.50;6.13;;;;;;;;;;5075248;28;20456;-70
2021/07/21 05:45:46;;;;;;;9.83;6.77;;;;;;;;;;5072478;28;20783;-71
2021/07/21 05:48:15;;;;;;;12.00;7.27;;;;;;;;;;5055790;28;20453;-71
2021/07/21 05:50:43;;;;;;;9.33;6.77;;;;;;;;;;5056092;28;20659;-71
2021/07/21 05:53:11;;;;;;;9.17;6.70;;;;;;;;;;5064797;28;20845;-71
2021/07/21 05:55:38;;;;;;;10.13;7.07;;;;;;;;;;5072225;28;20859;-71
2021/07/21 05:58:08;;;;;;;9.27;6.40;;;;;;;;;;5074620;28;20776;-71
2021/07/21 06:00:37;;;;;;;13.43;7.17;;;;;;;;;;5073788;28;20923;-72
2021/07/21 06:03:05;;;;;;;13.37;7.67;;;;;;;;;;5074094;28;20465;-72
2021/07/21 06:05:33;;;;;;;12.00;8.03;;;;;;;;;;5072592;28;20991;-71
2021/07/21 06:08:01;;;;;;;10.80;7.57;;;;;;;;;;5072776;28;20468;-72
2021/07/21 06:10:28;;;;;;;10.57;7.90;;;;;;;;;;5073856;28;20509;-71
2021/07/21 06:12:56;;;;;;;10.53;7.13;;;;;;;;;;5075024;28;20529;-70
2021/07/21 06:15:27;;;;;;;12.47;7.40;;;;;;;;;;5076219;28;20478;-71
2021/07/21 06:17:57;;;;;;;11.20;7.30;;;;;;;;;;5058382;28;20457;-71
2021/07/21 06:20:25;;;;;;;11.87;7.57;;;;;;;;;;5062418;28;20857;-70
2021/07/21 06:22:52;;;;;;;11.13;7.20;;;;;;;;;;5074975;28;20526;-71
2021/07/21 06:25:20;;;;;;;19.40;9.03;;;;;;;;;;5074150;28;20456;-70
2021/07/21 06:27:50;;;;;;;10.17;7.13;;;;;;;;;;5065447;28;20739;-71
2021/07/21 06:30:20;;;;;;;10.50;7.73;;;;;;;;;;5058505;28;20457;-72
2021/07/21 06:32:48;;;;;;;10.93;7.77;;;;;;;;;;5055181;28;20900;-71
2021/07/21 06:35:18;;;;;;;11.00;6.83;;;;;;;;;;5038387;28;20454;-72
2021/07/21 06:37:46;;;;;;;12.10;7.80;;;;;;;;;;5055026;28;20513;-73
2021/07/21 06:40:15;;;;;;;11.87;7.93;;;;;;;;;;5070308;28;20472;-72
2021/07/21 06:42:42;;;;;;;11.50;7.87;;;;;;;;;;5073617;28;20521;-72
2021/07/21 06:45:13;;;;;;;13.67;8.70;;;;;;;;;;5073333;28;20485;-72
2021/07/21 06:47:43;;;;;;;10.70;7.70;;;;;;;;;;5074388;28;21035;-72
2021/07/21 06:50:11;;;;;;;15.50;8.73;;;;;;;;;;5072828;28;20445;-71
2021/07/21 06:52:44;;;;;;;14.00;7.20;;;;;;;;;;5072704;28;20460;-72
2021/07/21 06:55:13;;;;;;;11.00;7.60;;;;;;;;;;5067172;28;20442;-72
2021/07/21 06:57:47;;;;;;;16.13;6.77;;;;;;;;;;5071575;28;20583;-72
2021/07/21 07:00:30;;;;;;;12.63;8.30;;;;;;;;;;5080186;28;20494;-71
2021/07/21 07:02:58;;;;;;;12.83;8.20;;;;;;;;;;5068537;28;20480;-73
2021/07/21 07:05:27;;;;;;;13.87;8.07;;;;;;;;;;5075215;28;20493;-72
2021/07/21 07:07:56;;;;;;;11.30;8.23;;;;;;;;;;5075085;28;20481;-72
2021/07/21 07:10:27;;;;;;;9.67;6.77;;;;;;;;;;5060448;28;20457;-73
2021/07/21 07:12:56;;;;;;;16.27;7.87;;;;;;;;;;5066876;28;20717;-71
2021/07/21 07:15:23;;;;;;;8.60;6.70;;;;;;;;;;5074086;28;20522;-71
2021/07/21 07:17:51;;;;;;;10.67;7.10;;;;;;;;;;5074587;28;20457;-72
2021/07/21 07:20:19;;;;;;;10.93;6.97;;;;;;;;;;5074839;28;20899;-71
2021/07/21 07:22:48;;;;;;;10.20;7.80;;;;;;;;;;5062563;28;20442;-71
2021/07/21 07:25:17;;;;;;;10.87;8.10;;;;;;;;;;5057800;28;20461;-71
2021/07/21 07:27:45;;;;;;;9.77;7.43;;;;;;;;;;5062431;28;20904;-72
2021/07/21 07:30:14;;;;;;;10.93;7.87;;;;;;;;;;5065619;28;20456;-72
2021/07/21 07:32:42;;;;;;;10.43;6.30;;;;;;;;;;5073705;28;20552;-72
2021/07/21 07:35:10;;;;;;;9.90;6.77;;;;;;;;;;5073387;28;20452;-71
2021/07/21 07:37:38;;;;;;;10.20;6.63;;;;;;;;;;5064531;28;20525;-72
2021/07/21 07:40:10;;;;;;;10.63;6.43;;;;;;;;;;5077474;28;20591;-73
2021/07/21 07:42:40;;;;;;;8.20;6.40;;;;;;;;;;5067121;28;20452;-71
2021/07/21 07:45:09;;;;;;;10.50;5.93;;;;;;;;;;5077026;28;20462;-71
2021/07/21 07:47:37;;;;;;;7.73;5.33;;;;;;;;;;5075652;28;20758;-72
2021/07/21 07:50:10;;;;;;;10.60;7.40;;;;;;;;;;5066080;28;20449;-72
2021/07/21 07:52:39;;;;;;;13.47;7.13;;;;;;;;;;5066609;28;20463;-71
2021/07/21 07:55:08;;;;;;;7.60;5.30;;;;;;;;;;5065233;28;20460;-72
2021/07/21 07:57:37;;;;;;;9.30;6.40;;;;;;;;;;5071702;28;20441;-72
2021/07/21 08:00:13;;;;;;;8.00;6.10;;;;;;;;;;5065018;28;20572;-72
2021/07/21 08:03:00;;;;;;;;;;;;;;;;;;;;;
2021/07/21 08:05:28;;;;;;;10.03;6.50;;;;;;;;;;5058426;28;20460;-72
2021/07/21 08:07:58;;;;;;;11.50;7.40;;;;;;;;;;5077820;28;20575;-71
2021/07/21 08:10:28;;;;;;;12.17;6.57;;;;;;;;;;5069214;28;21037;-73
2021/07/21 08:13:10;;;;;;;10.43;5.93;;;;;;;;;;5074652;28;20461;-72
2021/07/21 08:15:45;;;;;;;8.57;6.43;;;;;;;;;;5079751;28;20456;-73
2021/07/21 08:18:15;;;;;;;10.43;5.97;;;;;;;;;;5069759;28;20482;-73
2021/07/21 08:20:44;;;;;;;8.00;5.20;;;;;;;;;;5077296;28;20480;-72
2021/07/21 08:23:15;;;;;;;8.47;5.10;;;;;;;;;;5077099;28;20460;-72
2021/07/21 08:26:04;;;;;;;7.33;5.30;;;;;;;;;;5077198;28;20473;-73
2021/07/21 08:31:43;;;;;;;7.30;5.17;;;;;;;;;;5074761;28;20888;-73
2021/07/21 08:34:12;;;;;;;7.37;5.03;;;;;;;;;;5059735;28;20458;-72
2021/07/21 08:36:58;;;;;;;8.97;5.60;;;;;;;;;;5062420;28;20553;-72
2021/07/21 08:39:28;;;;;;;8.90;5.67;;;;;;;;;;5075457;28;20950;-71
2021/07/21 08:41:59;;;;;;;11.57;5.60;;;;;;;;;;5078071;28;20436;-72
2021/07/21 08:44:29;;;;;;;7.17;5.53;;;;;;;;;;5077188;28;20508;-73
2021/07/21 08:47:01;;;;;;;9.27;5.77;;;;;;;;;;5075889;28;20535;-73
2021/07/21 08:49:31;;;;;;;7.80;5.60;;;;;;;;;;5075692;28;20464;-72
2021/07/21 08:52:00;;;;;;;11.63;6.17;;;;;;;;;;5076832;28;20467;-72
2021/07/21 08:54:58;;;;;;;9.83;6.07;;;;;;;;;;5071272;28;20452;-73
2021/07/21 08:57:51;;;;;;;9.20;5.50;;;;;;;;;;5075580;28;20562;-72
2021/07/21 09:00:24;;;;;;;9.73;5.77;;;;;;;;;;5072659;28;20551;-72
2021/07/21 09:03:06;;;;;;;11.50;6.93;;;;;;;;;;5062117;28;20557;-72
2021/07/21 09:05:35;;;;;;;11.83;5.80;;;;;;;;;;5060622;28;20448;-72
2021/07/21 09:08:04;;;;;;;7.47;5.20;;;;;;;;;;5060416;28;20560;-72
2021/07/21 09:10:32;;;;;;;10.57;5.43;;;;;;;;;;5068912;28;20533;-72
2021/07/21 09:13:00;;;;;;;11.13;7.50;;;;;;;;;;5075413;28;20522;-72
2021/07/21 09:15:30;;;;;;;9.33;6.20;;;;;;;;;;5073695;28;20441;-73
2021/07/21 09:18:08;;;;;;;8.30;5.83;;;;;;;;;;5056439;28;20511;-72
2021/07/21 09:20:37;;;;;;;11.80;5.97;;;;;;;;;;5060404;28;20473;-72
2021/07/21 09:23:07;;;;;;;11.90;7.60;;;;;;;;;;5076164;28;20720;-73
2021/07/21 09:25:37;;;;;;;11.83;6.03;;;;;;;;;;5074375;28;20453;-73
2021/07/21 09:28:09;;;;;;;11.23;6.13;;;;;;;;;;5075099;28;20884;-72
2021/07/21 09:30:44;;;;;;;12.10;6.33;;;;;;;;;;5056785;28;20532;-73
2021/07/21 09:33:17;;;;;;;9.67;5.90;;;;;;;;;;5077099;28;20748;-73
2021/07/21 09:35:58;;;;;;;16.53;6.67;;;;;;;;;;5075144;28;20467;-73
2021/07/21 09:38:32;;;;;;;9.63;5.77;;;;;;;;;;5055846;28;20474;-75
2021/07/21 09:41:07;;;;;;;12.63;6.60;;;;;;;;;;5056228;28;20488;-73
2021/07/21 09:43:36;;;;;;;10.37;6.57;;;;;;;;;;5056199;28;20523;-73
2021/07/21 09:46:06;;;;;;;7.97;5.43;;;;;;;;;;5070824;28;20452;-72
2021/07/21 09:48:39;;;;;;;10.00;5.60;;;;;;;;;;5075163;28;20457;-71
2021/07/21 09:51:19;;;;;;;10.43;6.00;;;;;;;;;;5073973;28;20528;-72
2021/07/21 09:54:11;;;;;;;10.23;6.50;;;;;;;;;;5074454;28;20494;-71
2021/07/21 09:56:43;;;;;;;9.17;5.93;;;;;;;;;;5072832;28;20449;-71
2021/07/21 10:02:20;;;;;;;7.73;6.00;;;;;;;;;;5092847;28;20463;-71
2021/07/21 10:04:53;;;;;;;9.17;5.30;;;;;;;;;;5071443;28;20452;-71
2021/07/21 10:08:02;;;;;;;8.80;5.57;;;;;;;;;;5073559;28;20456;-71
2021/07/21 10:13:46;;;;;;;8.53;4.50;;;;;;;;;;5054745;28;20457;-72
2021/07/21 10:16:32;;;;;;;5.63;4.83;;;;;;;;;;5054160;28;20469;-72
2021/07/21 10:19:05;;;;;;;10.00;5.20;;;;;;;;;;5066872;28;20528;-71
2021/07/21 10:21:38;;;;;;;9.83;5.07;;;;;;;;;;5074283;28;20468;-71
2021/07/21 10:24:15;;;;;;;9.00;5.20;;;;;;;;;;5074434;28;20449;-71
2021/07/21 10:26:44;;;;;;;8.30;5.13;;;;;;;;;;5074799;28;20535;-71
2021/07/21 10:29:13;;;;;;;11.63;5.67;;;;;;;;;;5074730;28;20497;-71
2021/07/21 10:31:42;;;;;;;6.07;4.87;;;;;;;;;;5065612;28;20500;-72
2021/07/21 10:34:10;;;;;;;7.13;5.50;;;;;;;;;;5054583;28;20515;-71
2021/07/21 10:39:42;;;;;;;6.30;4.90;;;;;;;;;;5055444;28;20541;-71
2021/07/21 10:42:12;;;;;;;10.00;6.13;;;;;;;;;;5061994;28;20498;-71
2021/07/21 10:47:26;;;;;;;7.13;5.10;;;;;;;;;;5061835;28;20551;-75
2021/07/21 10:53:20;;;;;;;6.50;4.97;;;;;;;;;;5070669;28;20495;-72
2021/07/21 10:59:11;;;;;;;6.53;5.37;;;;;;;;;;5073898;28;20513;-72
2021/07/21 11:01:39;;;;;;;8.17;5.93;;;;;;;;;;5060270;28;20487;-72
2021/07/21 11:04:12;;;;;;;8.30;6.20;;;;;;;;;;5074957;28;20470;-72
2021/07/21 11:06:43;;;;;;;10.37;7.10;;;;;;;;;;5074391;28;20454;-74
2021/07/21 11:09:24;;;;;;;6.67;4.97;;;;;;;;;;5070756;28;20457;-71
2021/07/21 11:11:57;;;;;;;8.27;4.70;;;;;;;;;;5078977;28;20452;-72
2021/07/21 11:14:29;;;;;;;7.47;5.80;;;;;;;;;;5078756;28;20586;-72
2021/07/21 11:17:12;;;;;;;8.23;4.93;;;;;;;;;;5078527;28;20448;-71
2021/07/21 11:19:57;;;;;;;11.33;4.83;;;;;;;;;;5078614;28;20468;-72
2021/07/21 11:22:28;;;;;;;7.80;5.83;;;;;;;;;;5062622;28;20971;-70
2021/07/21 11:25:27;;;;;;;8.50;6.27;;;;;;;;;;5079021;28;21021;-72
2021/07/21 11:28:07;;;;;;;12.10;5.67;;;;;;;;;;5061099;28;20510;-71
2021/07/21 11:30:48;;;;;;;5.77;4.50;;;;;;;;;;5078360;28;20793;-71
2021/07/21 11:33:35;;;;;;;7.23;5.77;;;;;;;;;;5078198;28;20476;-71
2021/07/21 11:36:06;;;;;;;7.70;5.00;;;;;;;;;;5078301;28;20452;-71
2021/07/21 11:38:51;;;;;;;7.40;4.93;;;;;;;;;;5078543;28;20462;-71
2021/07/21 11:41:40;;;;;;;5.90;4.17;;;;;;;;;;5069681;28;20476;-71
2021/07/21 11:44:11;;;;;;;6.80;4.80;;;;;;;;;;5060235;28;20446;-71
2021/07/21 11:46:47;;;;;;;7.87;4.90;;;;;;;;;;5066532;28;20461;-72
2021/07/21 11:55:23;;;;;;;13.87;5.07;;;;;;;;;;5057185;28;20520;-72
2021/07/21 11:57:53;;;;;;;7.20;5.17;;;;;;;;;;5059862;28;20513;-72
2021/07/21 12:00:28;;;;;;;8.50;5.00;;;;;;;;;;5075598;28;20574;-72
2021/07/21 12:03:09;;;;;;;9.97;5.53;;;;;;;;;;5078052;28;20451;-71
2021/07/21 12:05:56;;;;;;;6.27;4.30;;;;;;;;;;5078119;28;20485;-71
2021/07/21 12:11:26;;;;;;;7.10;4.60;;;;;;;;;;5074449;28;20452;-71
2021/07/21 12:16:48;;;;;;;6.17;3.93;;;;;;;;;;5073810;28;20726;-71
2021/07/21 12:19:17;;;;;;;8.47;3.87;;;;;;;;;;5069261;28;20444;-71
2021/07/21 12:21:45;;;;;;;6.00;4.60;;;;;;;;;;5076303;28;20481;-71
2021/07/21 12:24:14;;;;;;;7.40;5.03;;;;;;;;;;5071413;28;20514;-71
2021/07/21 12:26:43;;;;;;;6.33;4.00;;;;;;;;;;5076957;28;20503;-71
2021/07/21 12:29:11;;;;;;;7.57;4.03;;;;;;;;;;5077959;28;20464;-71
2021/07/21 12:31:42;;;;;;;6.40;4.40;;;;;;;;;;5076383;28;20478;-71
2021/07/21 12:34:34;;;;;;;5.73;3.63;;;;;;;;;;5076989;28;20453;-72
2021/07/21 12:37:25;;;;;;;5.80;4.23;;;;;;;;;;5076677;28;20713;-72
2021/07/21 12:39:56;;;;;;;5.23;3.50;;;;;;;;;;5062697;28;20464;-73
2021/07/21 12:42:27;;;;;;;7.37;3.80;;;;;;;;;;5056556;28;20457;-73
2021/07/21 12:45:32;;;;;;;7.13;4.10;;;;;;;;;;5059357;28;20449;-71
2021/07/21 12:54:31;;;;;;;6.50;4.30;;;;;;;;;;5071535;28;20444;-71
2021/07/21 13:00:05;;;;;;;5.97;4.73;;;;;;;;;;5076050;28;20460;-71
2021/07/21 13:02:48;;;;;;;6.10;4.40;;;;;;;;;;5069494;28;20540;-71
2021/07/21 13:05:44;;;;;;;7.77;4.53;;;;;;;;;;5067320;28;20444;-71
2021/07/21 13:08:15;;;;;;;7.03;5.70;;;;;;;;;;5055639;28;20470;-71
2021/07/21 13:10:53;;;;;;;7.50;4.00;;;;;;;;;;5076641;28;20520;-71
2021/07/21 13:13:24;;;;;;;6.23;4.20;;;;;;;;;;5065543;28;20469;-71
2021/07/21 13:16:00;;;;;;;7.00;4.90;;;;;;;;;;5070763;28;20521;-71
2021/07/21 13:18:33;;;;;;;6.10;4.00;;;;;;;;;;5075830;28;20464;-71
2021/07/21 13:21:36;;;;;;;4.73;3.53;;;;;;;;;;5075509;28;20488;-71
2021/07/21 13:24:12;;;;;;;11.00;4.10;;;;;;;;;;5074705;28;20444;-71
2021/07/21 13:26:47;;;;;;;6.60;4.10;;;;;;;;;;5074971;28;20468;-71
2021/07/21 13:32:23;;;;;;;4.43;3.30;;;;;;;;;;5073466;28;20822;-72
2021/07/21 13:35:03;;;;;;;7.83;3.97;;;;;;;;;;5073392;28;20483;-72
2021/07/21 13:37:44;;;;;;;5.03;3.43;;;;;;;;;;5074783;28;20455;-71
2021/07/21 13:40:17;;;;;;;6.00;4.23;;;;;;;;;;5074112;28;20463;-72
2021/07/21 13:42:46;;;;;;;5.17;4.07;;;;;;;;;;5075046;28;20547;-71
2021/07/21 13:45:15;;;;;;;5.00;3.83;;;;;;;;;;5074548;28;20468;-72
2021/07/21 13:47:43;;;;;;;6.50;3.73;;;;;;;;;;5073895;28;20459;-71
2021/07/21 13:50:14;;;;;;;6.27;3.87;;;;;;;;;;5070825;28;20456;-71
2021/07/21 13:52:44;;;;;;;9.13;5.63;;;;;;;;;;5061877;28;20457;-72
2021/07/21 13:55:16;;;;;;;6.07;3.80;;;;;;;;;;5075256;28;20883;-72
2021/07/21 13:57:45;;;;;;;5.97;3.90;;;;;;;;;;5073155;28;20522;-72
2021/07/21 14:00:32;;;;;;;6.73;3.53;;;;;;;;;;5074834;28;21110;-71
2021/07/21 14:03:09;;;;;;;8.77;4.03;;;;;;;;;;5052517;28;20463;-72
2021/07/21 14:05:59;;;;;;;5.63;4.00;;;;;;;;;;5055587;28;20472;-73
2021/07/21 14:08:27;;;;;;;6.20;3.87;;;;;;;;;;5071109;28;20719;-72
2021/07/21 14:10:55;;;;;;;7.33;3.63;;;;;;;;;;5076208;28;20467;-72
2021/07/21 14:13:34;;;;;;;10.23;4.23;;;;;;;;;;5061328;28;20472;-71
2021/07/21 14:16:03;;;;;;;6.03;3.87;;;;;;;;;;5073265;28;21202;-72
2021/07/21 14:18:33;;;;;;;5.60;3.83;;;;;;;;;;5074010;28;20531;-71
2021/07/21 14:21:01;;;;;;;5.33;4.07;;;;;;;;;;5073153;28;20494;-71
2021/07/21 14:23:38;;;;;;;6.23;3.50;;;;;;;;;;5069751;28;20889;-72
2021/07/21 14:26:17;;;;;;;9.00;4.50;;;;;;;;;;5055080;28;20525;-73
2021/07/21 14:28:51;;;;;;;7.53;3.60;;;;;;;;;;5059678;28;20465;-71
2021/07/21 14:31:23;;;;;;;4.87;3.70;;;;;;;;;;5073589;28;20804;-72
2021/07/21 14:33:59;;;;;;;6.13;3.90;;;;;;;;;;5059025;28;20464;-72
2021/07/21 14:36:37;;;;;;;4.63;3.40;;;;;;;;;;5055850;28;20538;-72
2021/07/21 14:41:57;;;;;;;4.97;3.90;;;;;;;;;;5050617;28;20492;-73
2021/07/21 14:44:35;;;;;;;5.80;3.70;;;;;;;;;;5054415;28;20480;-71
2021/07/21 14:47:23;;;;;;;5.93;4.30;;;;;;;;;;5054103;28;20539;-73
2021/07/21 14:50:03;;;;;;;4.50;3.40;;;;;;;;;;5054589;28;20545;-72
2021/07/21 14:55:41;;;;;;;6.40;3.93;;;;;;;;;;5043545;28;20768;-72
2021/07/21 14:58:11;;;;;;;5.90;3.80;;;;;;;;;;5053634;28;20481;-71
2021/07/21 15:00:43;;;;;;;5.50;4.30;;;;;;;;;;5055035;28;20954;-72
2021/07/21 15:03:16;;;;;;;6.10;4.40;;;;;;;;;;5060490;28;20456;-71
2021/07/21 15:05:53;;;;;;;5.43;3.30;;;;;;;;;;5074512;28;20460;-72
2021/07/21 15:08:22;;;;;;;5.70;3.70;;;;;;;;;;5056815;28;20457;-71
2021/07/21 15:10:57;;;;;;;6.67;3.90;;;;;;;;;;5065409;28;20842;-71
2021/07/21 15:16:29;;;;;;;4.00;2.90;;;;;;;;;;5068981;28;20752;-70
2021/07/21 15:18:57;;;;;;;4.87;3.30;;;;;;;;;;5073384;28;20488;-73
2021/07/21 15:21:27;;;;;;;4.90;3.70;;;;;;;;;;5068341;28;20580;-73
2021/07/21 15:23:57;;;;;;;4.83;3.80;;;;;;;;;;5069439;28;20793;-70
2021/07/21 15:26:26;;;;;;;8.00;3.77;;;;;;;;;;5073265;28;20460;-71
2021/07/21 15:28:58;;;;;;;5.27;3.90;;;;;;;;;;5071618;28;20484;-71
2021/07/21 15:31:26;;;;;;;6.60;3.67;;;;;;;;;;5052650;28;20530;-71
2021/07/21 15:33:55;;;;;;;6.57;4.10;;;;;;;;;;5053314;28;21000;-70
2021/07/21 15:36:26;;;;;;;8.73;5.07;;;;;;;;;;5053184;28;20519;-70
2021/07/21 15:38:58;;;;;;;10.20;6.07;;;;;;;;;;5053389;28;20524;-70
2021/07/21 15:41:26;;;;;;;5.87;4.37;;;;;;;;;;5054223;28;20493;-71
2021/07/21 15:43:54;;;;;;;6.80;4.03;;;;;;;;;;5053934;28;20453;-71
2021/07/21 15:46:32;;;;;;;5.70;4.40;;;;;;;;;;5052912;28;20506;-72
2021/07/21 15:49:01;;;;;;;12.60;5.20;;;;;;;;;;5073000;28;20478;-71
2021/07/21 15:51:29;;;;;;;11.83;6.97;;;;;;;;;;5073135;28;20906;-72
2021/07/21 15:53:58;;;;;;;8.93;6.37;;;;;;;;;;5070357;28;20531;-71
2021/07/21 15:56:35;;;;;;;6.20;4.10;;;;;;;;;;5071929;28;21080;-72
2021/07/21 16:01:47;;;;;;;6.60;3.93;;;;;;;;;;5055543;28;20496;-71
2021/07/21 16:04:16;;;;;;;8.43;5.00;;;;;;;;;;5056701;28;20461;-71
2021/07/21 16:06:45;;;;;;;7.23;4.60;;;;;;;;;;5074032;28;20464;-70
2021/07/21 16:09:17;;;;;;;6.63;4.23;;;;;;;;;;5075517;28;20516;-70